Latest Weather Observations for Fawkner Beacon

IDV60801

Issued at 2:05 am EST Saturday 2 August 2014 (issued every 30 minutes, with the page automatically refreshed every 10 minutes)

About weather observations | Map of weather stations | Latest weather observations for VIC | Other Formats
Station Details ID: 086376 Name: FAWKNER BEACON Lat: -37.91 Lon: 144.93 Height: 17.0 m
Data from the previous 72 hours. | See also: Recent months for locations in Victoria
Date/Time
EST
Temp
°C
App
Temp
°C
Dew
Point
Rel
Hum
%
Delta-T
°C
Wind Press
QNH
hPa
Press
MSL
hPa
Rain
since 9 am
mm
Dir
 
Spd
km/h
Gust
km/h
Spd
kts
Gust
kts
02/02:00am - - - - - WSW 41 46 22 25 - - -
02/01:30am - - - - - SW 37 44 20 24 - - -
02/01:00am - - - - - WSW 39 46 21 25 - - -
02/12:30am - - - - - WSW 33 41 18 22 - - -
02/12:00am - - - - - WSW 37 44 20 24 - - -
 
Date/Time
EST
Temp
°C
App
Temp
°C
Dew
Point
Rel
Hum
%
Delta-T
°C
Wind Press
QNH
hPa
Press
MSL
hPa
Rain
since 9 am
mm
Dir
 
Spd
km/h
Gust
km/h
Spd
kts
Gust
kts
01/11:30pm - - - - - WSW 44 50 24 27 - - -
01/11:00pm - - - - - WSW 35 44 19 24 - - -
01/10:30pm - - - - - W 35 43 19 23 - - -
01/10:00pm - - - - - W 39 44 21 24 - - -
01/09:53pm - - - - - W 39 44 21 24 - - -
01/09:30pm - - - - - SW 41 50 22 27 - - -
01/09:21pm - - - - - SW 43 52 23 28 - - -
01/09:00pm - - - - - W 39 46 21 25 - - -
01/08:30pm - - - - - WSW 32 39 17 21 - - -
01/08:00pm - - - - - WSW 37 48 20 26 - - -
01/07:57pm - - - - - WSW 37 48 20 26 - - -
01/07:30pm - - - - - S 32 50 17 27 - - -
01/07:28pm - - - - - S 35 54 19 29 - - -
01/07:16pm - - - - - S 37 48 20 26 - - -
01/07:14pm - - - - - S 57 67 31 36 - - -
01/07:12pm - - - - - SW 48 76 26 41 - - -
01/07:00pm - - - - - SW 44 54 24 29 - - -
01/06:30pm - - - - - SW 32 43 17 23 - - -
01/06:00pm - - - - - SW 39 48 21 26 - - -
01/05:30pm - - - - - SSW 44 59 24 32 - - -
01/05:00pm - - - - - SW 46 57 25 31 - - -
01/04:43pm - - - - - SSW 43 63 23 34 - - -
01/04:30pm - - - - - SSW 43 52 23 28 - - -
01/04:07pm - - - - - SSW 48 67 26 36 - - -
01/04:05pm - - - - - SW 43 50 23 27 - - -
01/04:00pm - - - - - WSW 39 48 21 26 - - -
01/03:30pm - - - - - WSW 46 54 25 29 - - -
01/03:00pm - - - - - W 32 48 17 26 - - -
01/02:58pm - - - - - W 28 48 15 26 - - -
01/02:30pm - - - - - SW 19 24 10 13 - - -
01/02:00pm - - - - - SW 39 48 21 26 - - -
01/01:38pm - - - - - SSW 32 50 17 27 - - -
01/01:30pm - - - - - SSW 35 44 19 24 - - -
01/01:08pm - - - - - SW 50 70 27 38 - - -
01/01:00pm - - - - - WSW 46 57 25 31 - - -
01/12:56pm - - - - - WSW 46 52 25 28 - - -
01/12:30pm - - - - - W 46 61 25 33 - - -
01/12:00pm - - - - - W 54 67 29 36 - - -
01/11:30am - - - - - W 57 82 31 44 - - -
01/11:27am - - - - - W 54 82 29 44 - - -
01/11:00am - - - - - W 50 54 27 29 - - -
01/10:30am - - - - - WNW 44 63 24 34 - - -
01/10:24am - - - - - NW 41 59 22 32 - - -
01/10:00am - - - - - NW 41 52 22 28 - - -
01/09:30am - - - - - NW 33 44 18 24 - - -
01/09:00am - - - - - NW 32 39 17 21 - - -
01/08:30am - - - - - NNW 35 44 19 24 - - -
01/08:00am - - - - - NNW 30 41 16 22 - - -
01/07:30am - - - - - NW 33 44 18 24 - - -
01/07:09am - - - - - NW 33 54 18 29 - - -
01/07:00am - - - - - NNW 35 46 19 25 - - -
01/06:30am - - - - - N 35 43 19 23 - - -
01/06:00am - - - - - N 33 41 18 22 - - -
01/05:30am - - - - - NNW 32 44 17 24 - - -
01/05:00am - - - - - NW 32 46 17 25 - - -
01/04:30am - - - - - NW 39 52 21 28 - - -
01/04:00am - - - - - NW 32 39 17 21 - - -
01/03:30am - - - - - WNW 33 48 18 26 - - -
01/03:00am - - - - - WNW 43 54 23 29 - - -
01/02:37am - - - - - NW 43 63 23 34 - - -
01/02:30am - - - - - NW 39 54 21 29 - - -
01/02:00am - - - - - WNW 39 48 21 26 - - -
01/01:30am - - - - - WNW 33 44 18 24 - - -
01/01:00am - - - - - WNW 43 52 23 28 - - -
01/12:30am - - - - - WNW 50 63 27 34 - - -
01/12:00am - - - - - WNW 46 57 25 31 - - -
 
Date/Time
EST
Temp
°C
App
Temp
°C
Dew
Point
Rel
Hum
%
Delta-T
°C
Wind Press
QNH
hPa
Press
MSL
hPa
Rain
since 9 am
mm
Dir
 
Spd
km/h
Gust
km/h
Spd
kts
Gust
kts
31/11:30pm - - - - - WNW 50 63 27 34 - - -
31/11:00pm - - - - - WNW 44 52 24 28 - - -
31/10:30pm - - - - - WNW 46 57 25 31 - - -
31/10:00pm - - - - - WNW 50 61 27 33 - - -
31/09:30pm - - - - - W 46 54 25 29 - - -
31/09:00pm - - - - - W 44 54 24 29 - - -
31/08:30pm - - - - - W 39 44 21 24 - - -
31/08:00pm - - - - - WNW 43 52 23 28 - - -
31/07:30pm - - - - - NW 37 46 20 25 - - -
31/07:00pm - - - - - NW 39 52 21 28 - - -
31/06:30pm - - - - - WNW 41 48 22 26 - - -
31/06:00pm - - - - - WNW 41 48 22 26 - - -
31/05:30pm - - - - - W 46 61 25 33 - - -
31/05:00pm - - - - - WSW 57 70 31 38 - - -
31/04:53pm - - - - - WSW 52 70 28 38 - - -
31/04:30pm - - - - - WSW 50 65 27 35 - - -
31/04:00pm - - - - - SW 59 70 32 38 - - -
31/03:32pm - - - - - SW 63 82 34 44 - - -
31/03:30pm - - - - - SW 63 80 34 43 - - -
31/03:10pm - - - - - SW 61 82 33 44 - - -
31/03:00pm - - - - - SW 63 72 34 39 - - -
31/02:42pm - - - - - SW 59 69 32 37 - - -
31/02:39pm - - - - - W 65 78 35 42 - - -
31/02:30pm - - - - - NW 72 87 39 47 - - -
31/02:00pm - - - - - NW 67 87 36 47 - - -
31/01:30pm - - - - - NW 69 89 37 48 - - -
31/01:00pm - - - - - NW 61 89 33 48 - - -
31/12:30pm - - - - - NW 67 98 36 53 - - -
31/12:00pm - - - - - NW 63 83 34 45 - - -
31/11:30am - - - - - NW 59 80 32 43 - - -
31/11:00am - - - - - NW 61 82 33 44 - - -
31/10:30am - - - - - NNW 57 76 31 41 - - -
31/10:28am - - - - - NNW 56 76 30 41 - - -
31/10:00am - - - - - N 57 67 31 36 - - -
31/09:30am - - - - - NNW 57 69 31 37 - - -
31/09:00am - - - - - NNW 65 83 35 45 - - -
31/08:56am - - - - - NNW 65 83 35 45 - - -
31/08:30am - - - - - NNW 65 82 35 44 - - -
31/08:17am - - - - - NNW 61 80 33 43 - - -
31/08:00am - - - - - NNW 63 78 34 42 - - -
31/07:46am - - - - - NNW 61 80 33 43 - - -
31/07:30am - - - - - NNW 65 80 35 43 - - -
31/07:03am - - - - - NW 61 80 33 43 - - -
31/07:00am - - - - - NW 59 76 32 41 - - -
31/06:57am - - - - - NNW 56 76 30 41 - - -
31/06:30am - - - - - NNW 52 65 28 35 - - -
31/06:00am - - - - - NNW 44 52 24 28 - - -
31/05:30am - - - - - N 39 52 21 28 - - -
31/05:00am - - - - - N 35 43 19 23 - - -
31/04:30am - - - - - NNW 44 54 24 29 - - -
31/04:00am - - - - - N 39 46 21 25 - - -
31/03:30am - - - - - NNW 43 54 23 29 - - -
31/03:00am - - - - - NNW 48 59 26 32 - - -
31/02:30am - - - - - NNW 48 61 26 33 - - -
31/02:12am - - - - - NNW 41 59 22 32 - - -
31/02:00am - - - - - NNW 39 46 21 25 - - -
31/01:30am - - - - - NNW 33 44 18 24 - - -
31/01:00am - - - - - NNW 39 48 21 26 - - -
31/12:48am - - - - - N 37 57 20 31 - - -
31/12:30am - - - - - N 37 44 20 24 - - -
31/12:00am - - - - - N 41 46 22 25 - - -
 
Date/Time
EST
Temp
°C
App
Temp
°C
Dew
Point
Rel
Hum
%
Delta-T
°C
Wind Press
QNH
hPa
Press
MSL
hPa
Rain
since 9 am
mm
Dir
 
Spd
km/h
Gust
km/h
Spd
kts
Gust
kts
30/11:30pm - - - - - N 44 52 24 28 - - -
30/11:00pm - - - - - NNW 46 57 25 31 - - -
30/10:30pm - - - - - NNW 44 50 24 27 - - -
30/10:00pm - - - - - NNW 41 46 22 25 - - -
30/09:30pm - - - - - NW 39 44 21 24 - - -
30/09:00pm - - - - - NW 39 46 21 25 - - -
30/08:30pm - - - - - NW 39 46 21 25 - - -
30/08:00pm - - - - - NW 39 44 21 24 - - -
30/07:30pm - - - - - NW 43 48 23 26 - - -
30/07:00pm - - - - - NNW 44 52 24 28 - - -
30/06:30pm - - - - - NNW 48 57 26 31 - - -
30/06:00pm - - - - - NW 33 43 18 23 - - -
30/05:30pm - - - - - NNW 41 46 22 25 - - -
30/05:00pm - - - - - NW 37 46 20 25 - - -
30/04:30pm - - - - - WNW 39 46 21 25 - - -
30/04:00pm - - - - - WNW 39 50 21 27 - - -
30/03:30pm - - - - - WNW 43 52 23 28 - - -
30/03:00pm - - - - - WNW 48 61 26 33 - - -
30/02:30pm - - - - - NW 44 50 24 27 - - -
30/02:00pm - - - - - WNW 33 43 18 23 - - -
30/01:30pm - - - - - NW 33 41 18 22 - - -
30/01:00pm - - - - - NW 30 39 16 21 - - -
30/12:30pm - - - - - NW 24 35 13 19 - - -
30/12:00pm - - - - - NW 26 32 14 17 - - -
30/11:30am - - - - - WNW 35 43 19 23 - - -
30/11:00am - - - - - NNW 32 33 17 18 - - -
30/10:30am - - - - - NW 33 44 18 24 - - -
30/10:00am - - - - - NW 32 41 17 22 - - -
30/09:30am - - - - - NW 32 39 17 21 - - -
30/09:00am - - - - - NNW 39 46 21 25 - - -
30/08:30am - - - - - NNW 32 41 17 22 - - -
30/08:00am - - - - - N 26 32 14 17 - - -
30/07:30am - - - - - NNW 24 28 13 15 - - -
30/07:00am - - - - - NNW 26 30 14 16 - - -
30/06:30am - - - - - NW 26 30 14 16 - - -
30/06:00am - - - - - WNW 30 33 16 18 - - -
30/05:30am - - - - - WNW 24 26 13 14 - - -
30/05:00am - - - - - W 24 30 13 16 - - -
30/04:37am - - - - - W 44 63 24 34 - - -
30/04:30am - - - - - W 48 63 26 34 - - -
30/04:20am - - - - - WSW 44 63 24 34 - - -
30/04:10am - - - - - WSW 43 50 23 27 - - -
30/04:00am - - - - - WNW 32 39 17 21 - - -
30/03:30am - - - - - WNW 33 43 18 23 - - -
30/03:00am - - - - - NW 32 41 17 22 - - -
30/02:30am - - - - - WNW 33 41 18 22 - - -

Other Formats:

Comma delimited format used in spreadsheet applications
http://www.bom.gov.au/fwo/IDV60801/IDV60801.95872.axf

JavaScript Object Notation format (JSON) in row-major order
http://www.bom.gov.au/fwo/IDV60801/IDV60801.95872.json